sensor_id;sensor_type;location;lat;lon;timestamp;P1;durP1;ratioP1;P2;durP2;ratioP2
29500;SDS011;16450;50.288;10.966;2024-01-11T00:00:36;32.37;;;16.97;;
29500;SDS011;16450;50.288;10.966;2024-01-11T00:03:38;31.97;;;15.73;;
29500;SDS011;16450;50.288;10.966;2024-01-11T00:06:42;35.27;;;15.27;;
29500;SDS011;16450;50.288;10.966;2024-01-11T00:09:45;27.47;;;14.20;;
29500;SDS011;16450;50.288;10.966;2024-01-11T00:12:47;33.77;;;15.23;;
29500;SDS011;16450;50.288;10.966;2024-01-11T00:15:49;33.23;;;14.43;;
29500;SDS011;16450;50.288;10.966;2024-01-11T00:18:51;32.13;;;14.40;;
29500;SDS011;16450;50.288;10.966;2024-01-11T00:21:53;30.17;;;14.30;;
29500;SDS011;16450;50.288;10.966;2024-01-11T00:24:55;26.70;;;13.60;;
29500;SDS011;16450;50.288;10.966;2024-01-11T00:27:57;31.17;;;15.13;;
29500;SDS011;16450;50.288;10.966;2024-01-11T00:30:59;30.53;;;14.03;;
29500;SDS011;16450;50.288;10.966;2024-01-11T00:34:01;32.73;;;14.80;;
29500;SDS011;16450;50.288;10.966;2024-01-11T00:37:03;31.87;;;14.43;;
29500;SDS011;16450;50.288;10.966;2024-01-11T00:40:05;30.43;;;14.20;;
29500;SDS011;16450;50.288;10.966;2024-01-11T00:43:07;32.03;;;14.63;;
29500;SDS011;16450;50.288;10.966;2024-01-11T00:46:09;28.73;;;13.00;;
29500;SDS011;16450;50.288;10.966;2024-01-11T00:49:11;33.43;;;14.53;;
29500;SDS011;16450;50.288;10.966;2024-01-11T00:52:13;29.00;;;13.60;;
29500;SDS011;16450;50.288;10.966;2024-01-11T00:55:15;38.57;;;15.57;;
29500;SDS011;16450;50.288;10.966;2024-01-11T00:58:17;31.93;;;13.83;;
29500;SDS011;16450;50.288;10.966;2024-01-11T01:01:19;31.03;;;14.57;;
29500;SDS011;16450;50.288;10.966;2024-01-11T01:04:21;33.27;;;14.87;;
29500;SDS011;16450;50.288;10.966;2024-01-11T01:07:23;32.33;;;14.90;;
29500;SDS011;16450;50.288;10.966;2024-01-11T01:10:25;33.10;;;14.40;;
29500;SDS011;16450;50.288;10.966;2024-01-11T01:13:27;29.03;;;14.13;;
29500;SDS011;16450;50.288;10.966;2024-01-11T01:16:28;29.10;;;13.87;;
29500;SDS011;16450;50.288;10.966;2024-01-11T01:19:30;32.40;;;14.20;;
29500;SDS011;16450;50.288;10.966;2024-01-11T01:22:32;30.27;;;13.67;;
29500;SDS011;16450;50.288;10.966;2024-01-11T01:25:34;31.10;;;14.13;;
29500;SDS011;16450;50.288;10.966;2024-01-11T01:28:36;30.83;;;13.23;;
29500;SDS011;16450;50.288;10.966;2024-01-11T01:31:38;28.47;;;13.63;;
29500;SDS011;16450;50.288;10.966;2024-01-11T01:34:40;25.97;;;13.57;;
29500;SDS011;16450;50.288;10.966;2024-01-11T01:37:43;28.27;;;13.63;;
29500;SDS011;16450;50.288;10.966;2024-01-11T01:40:45;29.93;;;13.70;;
29500;SDS011;16450;50.288;10.966;2024-01-11T01:43:47;31.60;;;13.37;;
29500;SDS011;16450;50.288;10.966;2024-01-11T01:46:51;32.80;;;15.37;;
29500;SDS011;16450;50.288;10.966;2024-01-11T01:49:53;30.43;;;13.67;;
29500;SDS011;16450;50.288;10.966;2024-01-11T01:52:57;29.90;;;13.50;;
29500;SDS011;16450;50.288;10.966;2024-01-11T01:55:59;28.73;;;12.67;;
29500;SDS011;16450;50.288;10.966;2024-01-11T01:59:01;28.27;;;13.10;;
29500;SDS011;16450;50.288;10.966;2024-01-11T02:02:05;27.77;;;13.37;;
29500;SDS011;16450;50.288;10.966;2024-01-11T02:05:08;29.60;;;13.90;;
29500;SDS011;16450;50.288;10.966;2024-01-11T02:08:15;27.67;;;12.87;;
29500;SDS011;16450;50.288;10.966;2024-01-11T02:11:20;30.70;;;12.87;;
29500;SDS011;16450;50.288;10.966;2024-01-11T02:14:22;25.27;;;11.73;;
29500;SDS011;16450;50.288;10.966;2024-01-11T02:17:25;22.67;;;12.07;;
29500;SDS011;16450;50.288;10.966;2024-01-11T02:20:28;27.20;;;11.87;;
29500;SDS011;16450;50.288;10.966;2024-01-11T02:23:30;26.40;;;11.27;;
29500;SDS011;16450;50.288;10.966;2024-01-11T02:26:32;25.90;;;11.73;;
29500;SDS011;16450;50.288;10.966;2024-01-11T02:29:35;25.97;;;11.40;;
29500;SDS011;16450;50.288;10.966;2024-01-11T02:32:37;29.90;;;13.70;;
29500;SDS011;16450;50.288;10.966;2024-01-11T02:35:39;32.67;;;14.97;;
29500;SDS011;16450;50.288;10.966;2024-01-11T02:38:46;30.57;;;13.90;;
29500;SDS011;16450;50.288;10.966;2024-01-11T02:41:49;28.77;;;13.40;;
29500;SDS011;16450;50.288;10.966;2024-01-11T02:44:52;32.43;;;14.10;;
29500;SDS011;16450;50.288;10.966;2024-01-11T02:47:54;31.77;;;13.87;;
29500;SDS011;16450;50.288;10.966;2024-01-11T02:50:57;34.77;;;14.07;;
29500;SDS011;16450;50.288;10.966;2024-01-11T02:53:59;30.30;;;14.53;;
29500;SDS011;16450;50.288;10.966;2024-01-11T02:57:01;31.23;;;14.53;;
29500;SDS011;16450;50.288;10.966;2024-01-11T03:00:03;32.63;;;14.50;;
29500;SDS011;16450;50.288;10.966;2024-01-11T03:03:06;33.73;;;14.90;;
29500;SDS011;16450;50.288;10.966;2024-01-11T03:06:08;27.87;;;13.50;;
29500;SDS011;16450;50.288;10.966;2024-01-11T03:09:10;28.53;;;13.17;;
29500;SDS011;16450;50.288;10.966;2024-01-11T03:12:12;34.27;;;13.30;;
29500;SDS011;16450;50.288;10.966;2024-01-11T03:15:15;28.73;;;13.17;;
29500;SDS011;16450;50.288;10.966;2024-01-11T03:18:17;25.70;;;11.30;;
29500;SDS011;16450;50.288;10.966;2024-01-11T03:21:18;33.27;;;13.57;;
29500;SDS011;16450;50.288;10.966;2024-01-11T03:24:20;28.80;;;12.77;;
29500;SDS011;16450;50.288;10.966;2024-01-11T03:27:22;27.93;;;13.30;;
29500;SDS011;16450;50.288;10.966;2024-01-11T03:30:24;26.13;;;12.23;;
29500;SDS011;16450;50.288;10.966;2024-01-11T03:33:26;27.00;;;12.20;;
29500;SDS011;16450;50.288;10.966;2024-01-11T03:36:28;25.77;;;11.90;;
29500;SDS011;16450;50.288;10.966;2024-01-11T03:39:30;26.63;;;12.37;;
29500;SDS011;16450;50.288;10.966;2024-01-11T03:42:32;26.43;;;12.00;;
29500;SDS011;16450;50.288;10.966;2024-01-11T03:45:34;26.37;;;11.90;;
29500;SDS011;16450;50.288;10.966;2024-01-11T03:48:35;25.47;;;12.50;;
29500;SDS011;16450;50.288;10.966;2024-01-11T03:51:37;28.17;;;12.47;;
29500;SDS011;16450;50.288;10.966;2024-01-11T03:54:39;30.53;;;13.70;;
29500;SDS011;16450;50.288;10.966;2024-01-11T03:57:41;31.30;;;13.93;;
29500;SDS011;16450;50.288;10.966;2024-01-11T04:00:45;29.47;;;13.83;;
29500;SDS011;16450;50.288;10.966;2024-01-11T04:03:47;28.43;;;13.50;;
29500;SDS011;16450;50.288;10.966;2024-01-11T04:06:51;32.53;;;13.97;;
29500;SDS011;16450;50.288;10.966;2024-01-11T04:09:53;29.17;;;13.97;;
29500;SDS011;16450;50.288;10.966;2024-01-11T04:12:55;33.63;;;13.80;;
29500;SDS011;16450;50.288;10.966;2024-01-11T04:15:57;28.40;;;13.67;;
29500;SDS011;16450;50.288;10.966;2024-01-11T04:18:59;33.90;;;14.43;;
29500;SDS011;16450;50.288;10.966;2024-01-11T04:22:01;34.30;;;15.10;;
29500;SDS011;16450;50.288;10.966;2024-01-11T04:25:03;31.47;;;14.53;;
29500;SDS011;16450;50.288;10.966;2024-01-11T04:28:05;30.47;;;14.00;;
29500;SDS011;16450;50.288;10.966;2024-01-11T04:31:09;31.80;;;13.93;;
29500;SDS011;16450;50.288;10.966;2024-01-11T04:34:12;29.30;;;13.67;;
29500;SDS011;16450;50.288;10.966;2024-01-11T04:37:14;33.07;;;13.83;;
29500;SDS011;16450;50.288;10.966;2024-01-11T04:40:15;36.27;;;14.57;;
29500;SDS011;16450;50.288;10.966;2024-01-11T04:43:17;29.17;;;13.93;;
29500;SDS011;16450;50.288;10.966;2024-01-11T04:46:20;32.57;;;14.17;;
29500;SDS011;16450;50.288;10.966;2024-01-11T04:49:23;30.37;;;14.17;;
29500;SDS011;16450;50.288;10.966;2024-01-11T04:52:25;30.27;;;14.47;;
29500;SDS011;16450;50.288;10.966;2024-01-11T04:55:27;30.53;;;12.67;;
29500;SDS011;16450;50.288;10.966;2024-01-11T04:58:28;30.07;;;14.03;;
29500;SDS011;16450;50.288;10.966;2024-01-11T05:01:30;32.93;;;14.37;;
29500;SDS011;16450;50.288;10.966;2024-01-11T05:04:32;26.27;;;13.47;;
29500;SDS011;16450;50.288;10.966;2024-01-11T05:07:34;29.83;;;12.77;;
29500;SDS011;16450;50.288;10.966;2024-01-11T05:10:36;28.53;;;13.37;;
29500;SDS011;16450;50.288;10.966;2024-01-11T05:13:37;26.67;;;13.13;;
29500;SDS011;16450;50.288;10.966;2024-01-11T05:16:39;28.73;;;14.20;;
29500;SDS011;16450;50.288;10.966;2024-01-11T05:19:42;29.93;;;13.30;;
29500;SDS011;16450;50.288;10.966;2024-01-11T05:22:44;26.57;;;12.07;;
29500;SDS011;16450;50.288;10.966;2024-01-11T05:25:46;32.43;;;12.10;;
29500;SDS011;16450;50.288;10.966;2024-01-11T05:28:48;26.37;;;11.50;;
29500;SDS011;16450;50.288;10.966;2024-01-11T05:31:50;26.10;;;11.80;;
29500;SDS011;16450;50.288;10.966;2024-01-11T05:34:51;28.87;;;12.70;;
29500;SDS011;16450;50.288;10.966;2024-01-11T05:37:54;26.43;;;11.60;;
29500;SDS011;16450;50.288;10.966;2024-01-11T05:40:58;29.40;;;11.70;;
29500;SDS011;16450;50.288;10.966;2024-01-11T05:44:00;27.00;;;12.00;;
29500;SDS011;16450;50.288;10.966;2024-01-11T05:47:02;27.00;;;12.47;;
29500;SDS011;16450;50.288;10.966;2024-01-11T05:50:04;27.63;;;13.27;;
29500;SDS011;16450;50.288;10.966;2024-01-11T05:53:06;30.90;;;14.70;;
29500;SDS011;16450;50.288;10.966;2024-01-11T05:56:09;36.87;;;13.17;;
29500;SDS011;16450;50.288;10.966;2024-01-11T05:59:12;29.73;;;13.73;;
29500;SDS011;16450;50.288;10.966;2024-01-11T06:02:14;24.33;;;11.40;;
29500;SDS011;16450;50.288;10.966;2024-01-11T06:05:16;24.33;;;11.67;;
29500;SDS011;16450;50.288;10.966;2024-01-11T06:08:18;26.70;;;11.27;;
29500;SDS011;16450;50.288;10.966;2024-01-11T06:11:20;25.43;;;10.87;;
29500;SDS011;16450;50.288;10.966;2024-01-11T06:14:21;22.37;;;10.70;;
29500;SDS011;16450;50.288;10.966;2024-01-11T06:17:24;20.27;;;9.77;;
29500;SDS011;16450;50.288;10.966;2024-01-11T06:20:25;23.50;;;10.47;;
29500;SDS011;16450;50.288;10.966;2024-01-11T06:23:27;23.57;;;11.10;;
29500;SDS011;16450;50.288;10.966;2024-01-11T06:26:29;23.43;;;11.20;;
29500;SDS011;16450;50.288;10.966;2024-01-11T06:29:31;26.47;;;11.97;;
29500;SDS011;16450;50.288;10.966;2024-01-11T06:32:33;24.93;;;11.87;;
29500;SDS011;16450;50.288;10.966;2024-01-11T06:35:35;29.47;;;12.20;;
29500;SDS011;16450;50.288;10.966;2024-01-11T06:38:37;27.07;;;11.70;;
29500;SDS011;16450;50.288;10.966;2024-01-11T06:41:39;24.57;;;11.67;;
29500;SDS011;16450;50.288;10.966;2024-01-11T06:44:41;26.27;;;12.40;;
29500;SDS011;16450;50.288;10.966;2024-01-11T06:47:43;30.47;;;13.30;;
29500;SDS011;16450;50.288;10.966;2024-01-11T06:50:47;28.80;;;13.47;;
29500;SDS011;16450;50.288;10.966;2024-01-11T06:53:49;33.00;;;13.77;;
29500;SDS011;16450;50.288;10.966;2024-01-11T06:56:51;31.07;;;13.33;;
29500;SDS011;16450;50.288;10.966;2024-01-11T06:59:53;29.53;;;13.13;;
29500;SDS011;16450;50.288;10.966;2024-01-11T07:02:55;25.70;;;12.73;;
29500;SDS011;16450;50.288;10.966;2024-01-11T07:05:57;28.23;;;12.83;;
29500;SDS011;16450;50.288;10.966;2024-01-11T07:08:59;28.87;;;14.47;;
29500;SDS011;16450;50.288;10.966;2024-01-11T07:12:00;33.43;;;13.70;;
29500;SDS011;16450;50.288;10.966;2024-01-11T07:15:03;27.57;;;13.27;;
29500;SDS011;16450;50.288;10.966;2024-01-11T07:18:06;29.23;;;13.87;;
29500;SDS011;16450;50.288;10.966;2024-01-11T07:21:08;31.60;;;12.70;;
29500;SDS011;16450;50.288;10.966;2024-01-11T07:24:09;29.17;;;12.97;;
29500;SDS011;16450;50.288;10.966;2024-01-11T07:27:11;26.60;;;12.60;;
29500;SDS011;16450;50.288;10.966;2024-01-11T07:30:13;27.20;;;12.57;;
29500;SDS011;16450;50.288;10.966;2024-01-11T07:33:15;33.80;;;12.63;;
29500;SDS011;16450;50.288;10.966;2024-01-11T07:36:17;27.87;;;13.03;;
29500;SDS011;16450;50.288;10.966;2024-01-11T07:39:19;27.57;;;12.10;;
29500;SDS011;16450;50.288;10.966;2024-01-11T07:42:23;35.13;;;14.43;;
29500;SDS011;16450;50.288;10.966;2024-01-11T07:45:25;29.40;;;14.27;;
29500;SDS011;16450;50.288;10.966;2024-01-11T07:48:27;39.00;;;17.23;;
29500;SDS011;16450;50.288;10.966;2024-01-11T07:51:29;36.07;;;16.70;;
29500;SDS011;16450;50.288;10.966;2024-01-11T07:54:31;30.23;;;14.73;;
29500;SDS011;16450;50.288;10.966;2024-01-11T07:57:39;57.33;;;24.43;;
29500;SDS011;16450;50.288;10.966;2024-01-11T08:00:41;47.10;;;22.00;;
29500;SDS011;16450;50.288;10.966;2024-01-11T08:03:43;48.23;;;20.10;;
29500;SDS011;16450;50.288;10.966;2024-01-11T08:06:49;47.93;;;21.73;;
29500;SDS011;16450;50.288;10.966;2024-01-11T08:09:50;46.03;;;21.17;;
29500;SDS011;16450;50.288;10.966;2024-01-11T08:12:52;47.20;;;20.80;;
29500;SDS011;16450;50.288;10.966;2024-01-11T08:15:54;40.77;;;19.10;;
29500;SDS011;16450;50.288;10.966;2024-01-11T08:18:56;40.13;;;18.53;;
29500;SDS011;16450;50.288;10.966;2024-01-11T08:21:57;46.13;;;22.37;;
29500;SDS011;16450;50.288;10.966;2024-01-11T08:24:59;44.10;;;21.20;;
29500;SDS011;16450;50.288;10.966;2024-01-11T08:28:02;46.33;;;20.07;;
29500;SDS011;16450;50.288;10.966;2024-01-11T08:31:04;38.67;;;19.73;;
29500;SDS011;16450;50.288;10.966;2024-01-11T08:34:06;39.97;;;19.33;;
29500;SDS011;16450;50.288;10.966;2024-01-11T08:37:08;41.40;;;17.83;;
29500;SDS011;16450;50.288;10.966;2024-01-11T08:40:10;39.67;;;18.70;;
29500;SDS011;16450;50.288;10.966;2024-01-11T08:43:12;36.33;;;16.73;;
29500;SDS011;16450;50.288;10.966;2024-01-11T08:46:22;36.97;;;17.83;;
29500;SDS011;16450;50.288;10.966;2024-01-11T08:49:25;42.43;;;17.77;;
29500;SDS011;16450;50.288;10.966;2024-01-11T08:52:27;37.00;;;16.33;;
29500;SDS011;16450;50.288;10.966;2024-01-11T08:55:29;35.97;;;17.10;;
29500;SDS011;16450;50.288;10.966;2024-01-11T08:58:31;36.80;;;16.47;;
29500;SDS011;16450;50.288;10.966;2024-01-11T09:01:33;32.20;;;16.13;;
29500;SDS011;16450;50.288;10.966;2024-01-11T09:04:39;31.10;;;14.77;;
29500;SDS011;16450;50.288;10.966;2024-01-11T09:07:41;35.27;;;16.03;;
29500;SDS011;16450;50.288;10.966;2024-01-11T09:10:43;33.37;;;16.07;;
29500;SDS011;16450;50.288;10.966;2024-01-11T09:13:46;35.60;;;16.03;;
29500;SDS011;16450;50.288;10.966;2024-01-11T09:16:48;36.33;;;16.33;;
29500;SDS011;16450;50.288;10.966;2024-01-11T09:19:51;35.33;;;16.10;;
29500;SDS011;16450;50.288;10.966;2024-01-11T09:22:53;37.10;;;16.37;;
29500;SDS011;16450;50.288;10.966;2024-01-11T09:25:55;35.10;;;16.87;;
29500;SDS011;16450;50.288;10.966;2024-01-11T09:28:57;34.87;;;16.30;;
29500;SDS011;16450;50.288;10.966;2024-01-11T09:31:59;42.07;;;16.67;;
29500;SDS011;16450;50.288;10.966;2024-01-11T09:35:02;35.20;;;15.77;;
29500;SDS011;16450;50.288;10.966;2024-01-11T09:38:06;37.40;;;16.17;;
29500;SDS011;16450;50.288;10.966;2024-01-11T09:41:08;30.07;;;16.27;;
29500;SDS011;16450;50.288;10.966;2024-01-11T09:44:15;33.93;;;16.63;;
29500;SDS011;16450;50.288;10.966;2024-01-11T09:47:17;35.97;;;18.27;;
29500;SDS011;16450;50.288;10.966;2024-01-11T09:50:20;36.90;;;19.17;;
29500;SDS011;16450;50.288;10.966;2024-01-11T09:53:24;32.07;;;17.50;;
29500;SDS011;16450;50.288;10.966;2024-01-11T09:56:27;38.00;;;18.83;;
29500;SDS011;16450;50.288;10.966;2024-01-11T09:59:30;37.03;;;19.63;;
29500;SDS011;16450;50.288;10.966;2024-01-11T10:02:33;39.83;;;19.83;;
29500;SDS011;16450;50.288;10.966;2024-01-11T10:05:35;43.63;;;20.13;;
29500;SDS011;16450;50.288;10.966;2024-01-11T10:08:37;38.40;;;19.00;;
29500;SDS011;16450;50.288;10.966;2024-01-11T10:11:40;36.63;;;19.30;;
29500;SDS011;16450;50.288;10.966;2024-01-11T10:14:42;37.20;;;19.60;;
29500;SDS011;16450;50.288;10.966;2024-01-11T10:17:44;39.20;;;19.83;;
29500;SDS011;16450;50.288;10.966;2024-01-11T10:20:49;36.43;;;19.23;;
29500;SDS011;16450;50.288;10.966;2024-01-11T10:23:53;36.83;;;20.07;;
29500;SDS011;16450;50.288;10.966;2024-01-11T10:26:56;35.77;;;18.87;;
29500;SDS011;16450;50.288;10.966;2024-01-11T10:29:59;36.03;;;19.17;;
29500;SDS011;16450;50.288;10.966;2024-01-11T10:33:02;43.93;;;20.50;;
29500;SDS011;16450;50.288;10.966;2024-01-11T10:36:04;40.67;;;21.27;;
29500;SDS011;16450;50.288;10.966;2024-01-11T10:39:06;35.10;;;19.50;;
29500;SDS011;16450;50.288;10.966;2024-01-11T10:42:09;41.93;;;20.97;;
29500;SDS011;16450;50.288;10.966;2024-01-11T10:45:15;40.30;;;21.37;;
29500;SDS011;16450;50.288;10.966;2024-01-11T10:48:18;39.13;;;21.47;;
29500;SDS011;16450;50.288;10.966;2024-01-11T10:51:22;36.67;;;18.73;;
29500;SDS011;16450;50.288;10.966;2024-01-11T10:54:27;36.07;;;20.53;;
29500;SDS011;16450;50.288;10.966;2024-01-11T10:57:32;39.17;;;20.47;;
29500;SDS011;16450;50.288;10.966;2024-01-11T11:00:34;36.87;;;19.37;;
29500;SDS011;16450;50.288;10.966;2024-01-11T11:03:37;36.53;;;19.13;;
29500;SDS011;16450;50.288;10.966;2024-01-11T11:06:41;34.67;;;18.73;;
29500;SDS011;16450;50.288;10.966;2024-01-11T11:09:44;35.27;;;17.57;;
29500;SDS011;16450;50.288;10.966;2024-01-11T11:12:48;37.00;;;19.57;;
29500;SDS011;16450;50.288;10.966;2024-01-11T11:15:50;31.70;;;17.27;;
29500;SDS011;16450;50.288;10.966;2024-01-11T11:18:56;31.47;;;16.70;;
29500;SDS011;16450;50.288;10.966;2024-01-11T11:21:58;31.47;;;16.60;;
29500;SDS011;16450;50.288;10.966;2024-01-11T11:25:03;29.53;;;16.77;;
29500;SDS011;16450;50.288;10.966;2024-01-11T11:28:07;37.33;;;18.37;;
29500;SDS011;16450;50.288;10.966;2024-01-11T11:31:12;33.87;;;18.47;;
29500;SDS011;16450;50.288;10.966;2024-01-11T11:34:14;31.60;;;17.03;;
29500;SDS011;16450;50.288;10.966;2024-01-11T11:37:22;28.37;;;16.13;;
29500;SDS011;16450;50.288;10.966;2024-01-11T11:40:37;29.73;;;15.57;;
29500;SDS011;16450;50.288;10.966;2024-01-11T11:43:41;37.57;;;19.20;;
29500;SDS011;16450;50.288;10.966;2024-01-11T11:46:44;35.63;;;17.20;;
29500;SDS011;16450;50.288;10.966;2024-01-11T11:50:04;34.43;;;19.00;;
29500;SDS011;16450;50.288;10.966;2024-01-11T11:53:11;31.00;;;15.70;;
29500;SDS011;16450;50.288;10.966;2024-01-11T11:56:13;27.13;;;15.33;;
29500;SDS011;16450;50.288;10.966;2024-01-11T11:59:18;31.00;;;14.80;;
29500;SDS011;16450;50.288;10.966;2024-01-11T12:02:20;27.83;;;14.40;;
29500;SDS011;16450;50.288;10.966;2024-01-11T12:05:24;22.50;;;13.43;;
29500;SDS011;16450;50.288;10.966;2024-01-11T12:08:26;27.37;;;14.37;;
29500;SDS011;16450;50.288;10.966;2024-01-11T12:11:28;26.03;;;13.70;;
29500;SDS011;16450;50.288;10.966;2024-01-11T12:14:31;24.80;;;13.20;;
29500;SDS011;16450;50.288;10.966;2024-01-11T12:17:32;21.57;;;12.40;;
29500;SDS011;16450;50.288;10.966;2024-01-11T12:20:35;21.90;;;11.90;;
29500;SDS011;16450;50.288;10.966;2024-01-11T12:23:38;25.13;;;13.33;;
29500;SDS011;16450;50.288;10.966;2024-01-11T12:26:41;24.70;;;12.63;;
29500;SDS011;16450;50.288;10.966;2024-01-11T12:29:43;25.47;;;13.57;;
29500;SDS011;16450;50.288;10.966;2024-01-11T12:32:56;23.60;;;12.30;;
29500;SDS011;16450;50.288;10.966;2024-01-11T12:35:58;26.67;;;14.57;;
29500;SDS011;16450;50.288;10.966;2024-01-11T12:39:00;26.27;;;14.57;;
29500;SDS011;16450;50.288;10.966;2024-01-11T12:42:02;24.27;;;13.87;;
29500;SDS011;16450;50.288;10.966;2024-01-11T12:45:04;26.30;;;13.23;;
29500;SDS011;16450;50.288;10.966;2024-01-11T12:48:08;24.17;;;13.20;;
29500;SDS011;16450;50.288;10.966;2024-01-11T12:51:10;24.80;;;13.23;;
29500;SDS011;16450;50.288;10.966;2024-01-11T12:54:21;26.73;;;13.97;;
29500;SDS011;16450;50.288;10.966;2024-01-11T12:57:23;27.40;;;15.17;;
29500;SDS011;16450;50.288;10.966;2024-01-11T13:00:26;23.70;;;12.60;;
29500;SDS011;16450;50.288;10.966;2024-01-11T13:03:28;27.43;;;14.23;;
29500;SDS011;16450;50.288;10.966;2024-01-11T13:06:30;25.33;;;13.60;;
29500;SDS011;16450;50.288;10.966;2024-01-11T13:09:32;24.87;;;13.43;;
29500;SDS011;16450;50.288;10.966;2024-01-11T13:12:34;29.03;;;13.73;;
29500;SDS011;16450;50.288;10.966;2024-01-11T13:15:36;22.67;;;13.10;;
29500;SDS011;16450;50.288;10.966;2024-01-11T13:18:38;24.53;;;13.70;;
29500;SDS011;16450;50.288;10.966;2024-01-11T13:21:40;21.33;;;12.83;;
29500;SDS011;16450;50.288;10.966;2024-01-11T13:24:42;26.23;;;13.80;;
29500;SDS011;16450;50.288;10.966;2024-01-11T13:27:44;25.67;;;13.07;;
29500;SDS011;16450;50.288;10.966;2024-01-11T13:30:46;24.70;;;13.33;;
29500;SDS011;16450;50.288;10.966;2024-01-11T13:33:48;24.43;;;13.40;;
29500;SDS011;16450;50.288;10.966;2024-01-11T13:36:51;23.10;;;12.97;;
29500;SDS011;16450;50.288;10.966;2024-01-11T13:39:52;23.97;;;12.43;;
29500;SDS011;16450;50.288;10.966;2024-01-11T13:42:54;22.33;;;13.07;;
29500;SDS011;16450;50.288;10.966;2024-01-11T13:46:00;22.30;;;13.20;;
29500;SDS011;16450;50.288;10.966;2024-01-11T13:49:05;21.03;;;12.37;;
29500;SDS011;16450;50.288;10.966;2024-01-11T13:52:08;23.43;;;13.27;;
29500;SDS011;16450;50.288;10.966;2024-01-11T13:55:10;27.30;;;14.00;;
29500;SDS011;16450;50.288;10.966;2024-01-11T13:58:12;28.63;;;15.40;;
29500;SDS011;16450;50.288;10.966;2024-01-11T14:01:15;25.77;;;14.40;;
29500;SDS011;16450;50.288;10.966;2024-01-11T14:04:17;28.07;;;15.40;;
29500;SDS011;16450;50.288;10.966;2024-01-11T14:07:19;28.80;;;15.30;;
29500;SDS011;16450;50.288;10.966;2024-01-11T14:10:21;25.67;;;14.20;;
29500;SDS011;16450;50.288;10.966;2024-01-11T14:13:25;26.80;;;14.60;;
29500;SDS011;16450;50.288;10.966;2024-01-11T14:16:27;30.30;;;14.33;;
29500;SDS011;16450;50.288;10.966;2024-01-11T14:19:29;29.33;;;15.00;;
29500;SDS011;16450;50.288;10.966;2024-01-11T14:22:31;27.37;;;14.43;;
29500;SDS011;16450;50.288;10.966;2024-01-11T14:25:33;32.90;;;16.33;;
29500;SDS011;16450;50.288;10.966;2024-01-11T14:28:34;27.67;;;14.83;;
29500;SDS011;16450;50.288;10.966;2024-01-11T14:31:38;38.60;;;20.63;;
29500;SDS011;16450;50.288;10.966;2024-01-11T14:34:40;31.80;;;18.17;;
29500;SDS011;16450;50.288;10.966;2024-01-11T14:37:43;35.83;;;18.50;;
29500;SDS011;16450;50.288;10.966;2024-01-11T14:40:45;32.87;;;18.20;;
29500;SDS011;16450;50.288;10.966;2024-01-11T14:43:47;32.87;;;17.50;;
29500;SDS011;16450;50.288;10.966;2024-01-11T14:46:49;39.17;;;19.33;;
29500;SDS011;16450;50.288;10.966;2024-01-11T14:49:51;34.33;;;17.90;;
29500;SDS011;16450;50.288;10.966;2024-01-11T14:52:53;41.17;;;18.63;;
29500;SDS011;16450;50.288;10.966;2024-01-11T14:55:55;36.43;;;19.07;;
29500;SDS011;16450;50.288;10.966;2024-01-11T14:58:57;37.73;;;18.67;;
29500;SDS011;16450;50.288;10.966;2024-01-11T15:01:59;35.93;;;19.00;;
29500;SDS011;16450;50.288;10.966;2024-01-11T15:05:01;34.17;;;18.50;;
29500;SDS011;16450;50.288;10.966;2024-01-11T15:08:03;39.83;;;20.63;;
29500;SDS011;16450;50.288;10.966;2024-01-11T15:11:05;44.70;;;22.43;;
29500;SDS011;16450;50.288;10.966;2024-01-11T15:14:08;40.17;;;20.57;;
29500;SDS011;16450;50.288;10.966;2024-01-11T15:17:11;37.00;;;18.30;;
29500;SDS011;16450;50.288;10.966;2024-01-11T15:20:13;36.87;;;19.10;;
29500;SDS011;16450;50.288;10.966;2024-01-11T15:23:15;35.30;;;19.20;;
29500;SDS011;16450;50.288;10.966;2024-01-11T15:26:17;38.23;;;19.60;;
29500;SDS011;16450;50.288;10.966;2024-01-11T15:29:19;35.53;;;19.20;;
29500;SDS011;16450;50.288;10.966;2024-01-11T15:32:21;32.57;;;18.17;;
29500;SDS011;16450;50.288;10.966;2024-01-11T15:35:24;38.07;;;19.77;;
29500;SDS011;16450;50.288;10.966;2024-01-11T15:38:26;37.37;;;19.33;;
29500;SDS011;16450;50.288;10.966;2024-01-11T15:41:28;40.77;;;19.90;;
29500;SDS011;16450;50.288;10.966;2024-01-11T15:44:30;37.47;;;19.03;;
29500;SDS011;16450;50.288;10.966;2024-01-11T15:47:33;36.50;;;19.63;;
29500;SDS011;16450;50.288;10.966;2024-01-11T15:50:36;36.13;;;19.33;;
29500;SDS011;16450;50.288;10.966;2024-01-11T15:53:38;37.90;;;20.10;;
29500;SDS011;16450;50.288;10.966;2024-01-11T15:56:40;38.07;;;20.60;;
29500;SDS011;16450;50.288;10.966;2024-01-11T15:59:42;43.10;;;21.57;;
29500;SDS011;16450;50.288;10.966;2024-01-11T16:02:44;46.20;;;23.63;;
29500;SDS011;16450;50.288;10.966;2024-01-11T16:05:47;45.60;;;21.60;;
29500;SDS011;16450;50.288;10.966;2024-01-11T16:08:49;46.70;;;24.83;;
29500;SDS011;16450;50.288;10.966;2024-01-11T16:11:51;48.03;;;24.33;;
29500;SDS011;16450;50.288;10.966;2024-01-11T16:14:53;50.73;;;26.50;;
29500;SDS011;16450;50.288;10.966;2024-01-11T16:17:59;61.73;;;29.67;;
29500;SDS011;16450;50.288;10.966;2024-01-11T16:21:01;58.57;;;30.43;;
29500;SDS011;16450;50.288;10.966;2024-01-11T16:24:03;46.63;;;25.07;;
29500;SDS011;16450;50.288;10.966;2024-01-11T16:27:05;48.87;;;24.83;;
29500;SDS011;16450;50.288;10.966;2024-01-11T16:30:09;69.87;;;34.53;;
29500;SDS011;16450;50.288;10.966;2024-01-11T16:33:12;56.27;;;27.83;;
29500;SDS011;16450;50.288;10.966;2024-01-11T16:36:14;57.93;;;29.17;;
29500;SDS011;16450;50.288;10.966;2024-01-11T16:39:17;65.57;;;32.60;;
29500;SDS011;16450;50.288;10.966;2024-01-11T16:42:19;73.93;;;38.67;;
29500;SDS011;16450;50.288;10.966;2024-01-11T16:45:21;86.37;;;43.03;;
29500;SDS011;16450;50.288;10.966;2024-01-11T16:48:23;87.67;;;42.27;;
29500;SDS011;16450;50.288;10.966;2024-01-11T16:51:25;105.77;;;49.43;;
29500;SDS011;16450;50.288;10.966;2024-01-11T16:54:26;113.20;;;56.43;;
29500;SDS011;16450;50.288;10.966;2024-01-11T16:57:28;109.47;;;52.30;;
29500;SDS011;16450;50.288;10.966;2024-01-11T17:00:30;90.90;;;45.63;;
29500;SDS011;16450;50.288;10.966;2024-01-11T17:03:32;79.67;;;41.13;;
29500;SDS011;16450;50.288;10.966;2024-01-11T17:06:34;70.30;;;35.80;;
29500;SDS011;16450;50.288;10.966;2024-01-11T17:09:37;76.83;;;38.07;;
29500;SDS011;16450;50.288;10.966;2024-01-11T17:12:39;74.57;;;37.47;;
29500;SDS011;16450;50.288;10.966;2024-01-11T17:15:41;66.23;;;35.50;;
29500;SDS011;16450;50.288;10.966;2024-01-11T17:18:42;78.87;;;40.27;;
29500;SDS011;16450;50.288;10.966;2024-01-11T17:21:45;74.80;;;39.27;;
29500;SDS011;16450;50.288;10.966;2024-01-11T17:24:47;78.50;;;40.43;;
29500;SDS011;16450;50.288;10.966;2024-01-11T17:27:48;71.10;;;37.20;;
29500;SDS011;16450;50.288;10.966;2024-01-11T17:30:50;75.67;;;38.93;;